sensor_id;sensor_type;location;lat;lon;timestamp;temperature;humidity
71754;DHT22;59593;51.716;7.016;2022-07-29T00:01:17;19.00;88.80
71754;DHT22;59593;51.716;7.016;2022-07-29T00:03:43;19.00;89.70
71754;DHT22;59593;51.716;7.016;2022-07-29T00:06:09;19.00;89.20
71754;DHT22;59593;51.716;7.016;2022-07-29T00:08:34;18.90;89.40
71754;DHT22;59593;51.716;7.016;2022-07-29T00:11:00;19.00;89.60
71754;DHT22;59593;51.716;7.016;2022-07-29T00:13:25;18.90;89.40
71754;DHT22;59593;51.716;7.016;2022-07-29T00:15:51;18.90;89.80
71754;DHT22;59593;51.716;7.016;2022-07-29T00:18:17;18.80;90.10
71754;DHT22;59593;51.716;7.016;2022-07-29T00:20:42;18.70;90.10
71754;DHT22;59593;51.716;7.016;2022-07-29T00:23:08;18.80;90.20
71754;DHT22;59593;51.716;7.016;2022-07-29T00:25:33;18.70;90.30
71754;DHT22;59593;51.716;7.016;2022-07-29T00:31:15;18.70;90.80
71754;DHT22;59593;51.716;7.016;2022-07-29T00:33:41;18.60;90.60
71754;DHT22;59593;51.716;7.016;2022-07-29T00:36:06;18.60;90.80
71754;DHT22;59593;51.716;7.016;2022-07-29T00:38:32;18.50;90.60
71754;DHT22;59593;51.716;7.016;2022-07-29T00:40:57;18.50;90.90
71754;DHT22;59593;51.716;7.016;2022-07-29T00:43:23;18.50;90.90
71754;DHT22;59593;51.716;7.016;2022-07-29T00:45:49;18.50;90.80
71754;DHT22;59593;51.716;7.016;2022-07-29T00:48:14;18.50;90.90
71754;DHT22;59593;51.716;7.016;2022-07-29T00:50:40;18.50;91.00
71754;DHT22;59593;51.716;7.016;2022-07-29T00:53:06;18.50;91.30
71754;DHT22;59593;51.716;7.016;2022-07-29T00:55:32;18.40;91.00
71754;DHT22;59593;51.716;7.016;2022-07-29T00:57:58;18.40;91.10
71754;DHT22;59593;51.716;7.016;2022-07-29T01:00:27;18.40;90.90
71754;DHT22;59593;51.716;7.016;2022-07-29T01:02:53;18.40;91.00
71754;DHT22;59593;51.716;7.016;2022-07-29T01:05:21;18.40;91.10
71754;DHT22;59593;51.716;7.016;2022-07-29T01:07:50;18.40;91.00
71754;DHT22;59593;51.716;7.016;2022-07-29T01:10:18;18.40;91.20
71754;DHT22;59593;51.716;7.016;2022-07-29T01:12:47;18.40;91.50
71754;DHT22;59593;51.716;7.016;2022-07-29T01:15:13;18.30;91.30
71754;DHT22;59593;51.716;7.016;2022-07-29T01:18:01;18.40;91.50
71754;DHT22;59593;51.716;7.016;2022-07-29T01:34:12;18.20;92.00
71754;DHT22;59593;51.716;7.016;2022-07-29T01:36:50;18.10;92.00
71754;DHT22;59593;51.716;7.016;2022-07-29T01:39:35;18.10;92.10
71754;DHT22;59593;51.716;7.016;2022-07-29T01:44:58;18.00;91.90
71754;DHT22;59593;51.716;7.016;2022-07-29T01:47:28;18.00;92.00
71754;DHT22;59593;51.716;7.016;2022-07-29T01:49:58;18.00;92.40
71754;DHT22;59593;51.716;7.016;2022-07-29T01:52:34;17.90;92.20
71754;DHT22;59593;51.716;7.016;2022-07-29T01:55:07;18.00;92.60
71754;DHT22;59593;51.716;7.016;2022-07-29T01:57:39;18.00;92.30
71754;DHT22;59593;51.716;7.016;2022-07-29T02:00:06;17.90;92.20
71754;DHT22;59593;51.716;7.016;2022-07-29T02:02:33;17.90;92.40
71754;DHT22;59593;51.716;7.016;2022-07-29T02:05:02;17.90;92.50
71754;DHT22;59593;51.716;7.016;2022-07-29T02:07:29;17.80;92.90
71754;DHT22;59593;51.716;7.016;2022-07-29T02:09:56;17.80;92.70
71754;DHT22;59593;51.716;7.016;2022-07-29T02:12:24;17.80;92.70
71754;DHT22;59593;51.716;7.016;2022-07-29T02:14:53;17.80;92.80
71754;DHT22;59593;51.716;7.016;2022-07-29T02:17:29;17.80;92.80
71754;DHT22;59593;51.716;7.016;2022-07-29T02:19:59;17.70;93.00
71754;DHT22;59593;51.716;7.016;2022-07-29T02:22:28;17.60;93.20
71754;DHT22;59593;51.716;7.016;2022-07-29T02:24:55;17.60;93.50
71754;DHT22;59593;51.716;7.016;2022-07-29T02:27:22;17.50;93.70
71754;DHT22;59593;51.716;7.016;2022-07-29T02:29:49;17.40;93.80
71754;DHT22;59593;51.716;7.016;2022-07-29T02:32:16;17.50;93.90
71754;DHT22;59593;51.716;7.016;2022-07-29T02:34:43;17.40;94.10
71754;DHT22;59593;51.716;7.016;2022-07-29T02:37:11;17.40;94.00
71754;DHT22;59593;51.716;7.016;2022-07-29T02:39:39;17.40;94.00
71754;DHT22;59593;51.716;7.016;2022-07-29T02:42:11;17.40;94.20
71754;DHT22;59593;51.716;7.016;2022-07-29T02:44:38;17.40;94.60
71754;DHT22;59593;51.716;7.016;2022-07-29T02:50:02;17.30;94.60
71754;DHT22;59593;51.716;7.016;2022-07-29T02:52:44;17.30;94.70
71754;DHT22;59593;51.716;7.016;2022-07-29T02:55:26;17.30;94.50
71754;DHT22;59593;51.716;7.016;2022-07-29T03:00:28;17.30;94.80
71754;DHT22;59593;51.716;7.016;2022-07-29T03:02:56;17.20;94.80
71754;DHT22;59593;51.716;7.016;2022-07-29T03:05:24;17.10;94.90
71754;DHT22;59593;51.716;7.016;2022-07-29T03:07:55;17.10;95.10
71754;DHT22;59593;51.716;7.016;2022-07-29T03:10:23;17.00;95.00
71754;DHT22;59593;51.716;7.016;2022-07-29T03:12:49;17.10;95.30
71754;DHT22;59593;51.716;7.016;2022-07-29T03:15:15;17.40;94.50
71754;DHT22;59593;51.716;7.016;2022-07-29T03:17:41;17.40;94.30
71754;DHT22;59593;51.716;7.016;2022-07-29T03:20:09;17.20;94.80
71754;DHT22;59593;51.716;7.016;2022-07-29T03:22:42;17.00;95.20
71754;DHT22;59593;51.716;7.016;2022-07-29T03:25:12;16.90;95.50
71754;DHT22;59593;51.716;7.016;2022-07-29T03:27:38;16.80;95.50
71754;DHT22;59593;51.716;7.016;2022-07-29T03:30:05;17.00;95.50
71754;DHT22;59593;51.716;7.016;2022-07-29T03:32:31;17.50;94.60
71754;DHT22;59593;51.716;7.016;2022-07-29T03:34:56;17.40;94.60
71754;DHT22;59593;51.716;7.016;2022-07-29T03:37:22;17.40;94.50
71754;DHT22;59593;51.716;7.016;2022-07-29T03:39:49;17.10;94.70
71754;DHT22;59593;51.716;7.016;2022-07-29T03:42:16;17.00;94.90
71754;DHT22;59593;51.716;7.016;2022-07-29T03:44:44;17.30;94.70
71754;DHT22;59593;51.716;7.016;2022-07-29T03:47:11;17.40;94.30
71754;DHT22;59593;51.716;7.016;2022-07-29T03:49:40;17.40;94.50
71754;DHT22;59593;51.716;7.016;2022-07-29T03:52:06;17.10;95.00
71754;DHT22;59593;51.716;7.016;2022-07-29T03:54:33;17.00;95.10
71754;DHT22;59593;51.716;7.016;2022-07-29T03:57:01;17.20;95.00
71754;DHT22;59593;51.716;7.016;2022-07-29T03:59:27;17.10;95.10
71754;DHT22;59593;51.716;7.016;2022-07-29T04:01:54;16.80;95.70
71754;DHT22;59593;51.716;7.016;2022-07-29T04:04:21;16.60;96.20
71754;DHT22;59593;51.716;7.016;2022-07-29T04:06:47;16.50;96.40
71754;DHT22;59593;51.716;7.016;2022-07-29T04:09:13;16.90;95.90
71754;DHT22;59593;51.716;7.016;2022-07-29T04:11:40;16.90;95.90
71754;DHT22;59593;51.716;7.016;2022-07-29T04:14:06;16.60;96.40
71754;DHT22;59593;51.716;7.016;2022-07-29T04:16:32;16.40;96.70
71754;DHT22;59593;51.716;7.016;2022-07-29T04:18:58;16.40;96.80
71754;DHT22;59593;51.716;7.016;2022-07-29T04:21:23;16.50;96.80
71754;DHT22;59593;51.716;7.016;2022-07-29T04:23:49;16.70;96.50
71754;DHT22;59593;51.716;7.016;2022-07-29T04:26:19;16.50;96.70
71754;DHT22;59593;51.716;7.016;2022-07-29T04:28:45;16.30;97.00
71754;DHT22;59593;51.716;7.016;2022-07-29T04:31:11;16.40;96.90
71754;DHT22;59593;51.716;7.016;2022-07-29T04:33:37;16.40;97.10
71754;DHT22;59593;51.716;7.016;2022-07-29T04:36:03;16.60;96.70
71754;DHT22;59593;51.716;7.016;2022-07-29T04:38:29;16.30;97.10
71754;DHT22;59593;51.716;7.016;2022-07-29T04:40:55;16.20;97.30
71754;DHT22;59593;51.716;7.016;2022-07-29T04:43:20;16.30;97.80
71754;DHT22;59593;51.716;7.016;2022-07-29T04:45:46;16.40;97.80
71754;DHT22;59593;51.716;7.016;2022-07-29T04:48:12;16.40;98.60
71754;DHT22;59593;51.716;7.016;2022-07-29T04:50:40;16.70;97.70
71754;DHT22;59593;51.716;7.016;2022-07-29T04:53:06;16.70;99.20
71754;DHT22;59593;51.716;7.016;2022-07-29T04:55:33;16.40;99.90
71754;DHT22;59593;51.716;7.016;2022-07-29T04:57:58;16.00;99.90
71754;DHT22;59593;51.716;7.016;2022-07-29T05:00:24;15.70;99.90
71754;DHT22;59593;51.716;7.016;2022-07-29T05:02:50;15.70;99.90
71754;DHT22;59593;51.716;7.016;2022-07-29T05:05:15;15.90;99.90
71754;DHT22;59593;51.716;7.016;2022-07-29T05:07:41;15.80;99.90
71754;DHT22;59593;51.716;7.016;2022-07-29T05:10:08;15.20;99.90
71754;DHT22;59593;51.716;7.016;2022-07-29T05:12:33;14.90;99.90
71754;DHT22;59593;51.716;7.016;2022-07-29T05:14:59;14.80;99.90
71754;DHT22;59593;51.716;7.016;2022-07-29T05:17:25;14.70;99.90
71754;DHT22;59593;51.716;7.016;2022-07-29T05:19:50;14.60;99.90
71754;DHT22;59593;51.716;7.016;2022-07-29T05:22:18;14.70;99.90
71754;DHT22;59593;51.716;7.016;2022-07-29T05:24:44;14.70;99.90
71754;DHT22;59593;51.716;7.016;2022-07-29T05:27:09;14.60;99.90
71754;DHT22;59593;51.716;7.016;2022-07-29T05:29:35;14.60;99.90
71754;DHT22;59593;51.716;7.016;2022-07-29T05:32:02;14.60;99.90
71754;DHT22;59593;51.716;7.016;2022-07-29T05:34:27;14.80;99.90
71754;DHT22;59593;51.716;7.016;2022-07-29T05:36:53;14.90;99.90
71754;DHT22;59593;51.716;7.016;2022-07-29T05:39:19;14.90;99.90
71754;DHT22;59593;51.716;7.016;2022-07-29T05:41:44;14.90;99.90
71754;DHT22;59593;51.716;7.016;2022-07-29T05:44:10;14.90;99.90
71754;DHT22;59593;51.716;7.016;2022-07-29T05:46:36;14.90;99.90
71754;DHT22;59593;51.716;7.016;2022-07-29T05:49:02;15.00;99.90
71754;DHT22;59593;51.716;7.016;2022-07-29T05:51:28;15.10;99.90
71754;DHT22;59593;51.716;7.016;2022-07-29T05:53:55;15.20;99.90
71754;DHT22;59593;51.716;7.016;2022-07-29T05:56:20;15.00;99.90
71754;DHT22;59593;51.716;7.016;2022-07-29T05:58:46;14.90;99.90
71754;DHT22;59593;51.716;7.016;2022-07-29T06:01:11;15.00;99.90
71754;DHT22;59593;51.716;7.016;2022-07-29T06:03:37;15.00;99.90
71754;DHT22;59593;51.716;7.016;2022-07-29T06:06:03;15.10;99.90
71754;DHT22;59593;51.716;7.016;2022-07-29T06:08:29;15.30;99.90
71754;DHT22;59593;51.716;7.016;2022-07-29T06:10:55;15.40;99.90
71754;DHT22;59593;51.716;7.016;2022-07-29T06:13:20;15.40;99.90
71754;DHT22;59593;51.716;7.016;2022-07-29T06:15:46;15.40;99.90
71754;DHT22;59593;51.716;7.016;2022-07-29T06:18:12;15.40;99.90
71754;DHT22;59593;51.716;7.016;2022-07-29T06:20:38;15.40;99.90
71754;DHT22;59593;51.716;7.016;2022-07-29T06:23:04;15.50;99.90
71754;DHT22;59593;51.716;7.016;2022-07-29T06:25:30;15.40;99.90
71754;DHT22;59593;51.716;7.016;2022-07-29T06:27:56;15.20;99.90
71754;DHT22;59593;51.716;7.016;2022-07-29T06:30:22;15.00;99.90
71754;DHT22;59593;51.716;7.016;2022-07-29T06:32:48;14.80;99.90
71754;DHT22;59593;51.716;7.016;2022-07-29T06:35:14;14.70;99.90
71754;DHT22;59593;51.716;7.016;2022-07-29T06:37:40;14.60;99.90
71754;DHT22;59593;51.716;7.016;2022-07-29T06:40:06;14.60;99.90
71754;DHT22;59593;51.716;7.016;2022-07-29T06:42:51;14.70;99.90
71754;DHT22;59593;51.716;7.016;2022-07-29T06:45:16;14.70;99.90
71754;DHT22;59593;51.716;7.016;2022-07-29T06:47:42;14.60;99.90
71754;DHT22;59593;51.716;7.016;2022-07-29T06:50:08;14.50;99.90
71754;DHT22;59593;51.716;7.016;2022-07-29T06:52:37;14.50;99.90
71754;DHT22;59593;51.716;7.016;2022-07-29T06:55:03;14.50;99.90
71754;DHT22;59593;51.716;7.016;2022-07-29T06:57:28;14.60;99.90
71754;DHT22;59593;51.716;7.016;2022-07-29T06:59:56;14.50;99.90
71754;DHT22;59593;51.716;7.016;2022-07-29T07:02:22;14.60;99.90
71754;DHT22;59593;51.716;7.016;2022-07-29T07:04:47;14.70;99.90
71754;DHT22;59593;51.716;7.016;2022-07-29T07:07:13;14.80;99.90
71754;DHT22;59593;51.716;7.016;2022-07-29T07:09:38;14.80;99.90
71754;DHT22;59593;51.716;7.016;2022-07-29T07:12:04;14.80;99.90
71754;DHT22;59593;51.716;7.016;2022-07-29T07:14:30;14.90;99.90
71754;DHT22;59593;51.716;7.016;2022-07-29T07:16:55;15.10;99.90
71754;DHT22;59593;51.716;7.016;2022-07-29T07:19:21;15.20;99.90
71754;DHT22;59593;51.716;7.016;2022-07-29T07:21:47;15.30;99.90
71754;DHT22;59593;51.716;7.016;2022-07-29T07:24:12;15.40;99.90
71754;DHT22;59593;51.716;7.016;2022-07-29T07:26:38;15.50;99.90
71754;DHT22;59593;51.716;7.016;2022-07-29T07:29:05;15.50;99.90
71754;DHT22;59593;51.716;7.016;2022-07-29T07:31:30;15.40;99.90
71754;DHT22;59593;51.716;7.016;2022-07-29T07:33:56;15.60;99.90
71754;DHT22;59593;51.716;7.016;2022-07-29T07:36:22;15.80;99.90
71754;DHT22;59593;51.716;7.016;2022-07-29T07:38:48;15.90;99.90
71754;DHT22;59593;51.716;7.016;2022-07-29T07:41:14;15.90;99.90
71754;DHT22;59593;51.716;7.016;2022-07-29T07:43:40;15.90;99.90
71754;DHT22;59593;51.716;7.016;2022-07-29T07:46:06;15.90;99.90
71754;DHT22;59593;51.716;7.016;2022-07-29T07:48:31;16.00;99.90
71754;DHT22;59593;51.716;7.016;2022-07-29T07:50:57;16.10;99.90
71754;DHT22;59593;51.716;7.016;2022-07-29T07:53:23;16.10;99.90
71754;DHT22;59593;51.716;7.016;2022-07-29T07:55:49;16.30;99.90
71754;DHT22;59593;51.716;7.016;2022-07-29T07:58:14;16.40;99.90
71754;DHT22;59593;51.716;7.016;2022-07-29T08:00:40;16.40;99.90
71754;DHT22;59593;51.716;7.016;2022-07-29T08:03:05;16.50;99.90
71754;DHT22;59593;51.716;7.016;2022-07-29T08:05:31;16.50;99.90
71754;DHT22;59593;51.716;7.016;2022-07-29T08:07:57;16.50;99.90
71754;DHT22;59593;51.716;7.016;2022-07-29T08:10:23;16.40;99.90
71754;DHT22;59593;51.716;7.016;2022-07-29T08:13:08;16.40;99.90
71754;DHT22;59593;51.716;7.016;2022-07-29T08:15:35;16.30;99.90
71754;DHT22;59593;51.716;7.016;2022-07-29T08:18:01;16.50;99.90
71754;DHT22;59593;51.716;7.016;2022-07-29T08:20:27;16.60;99.90
71754;DHT22;59593;51.716;7.016;2022-07-29T08:22:53;16.60;99.90
71754;DHT22;59593;51.716;7.016;2022-07-29T08:25:19;16.40;99.90
71754;DHT22;59593;51.716;7.016;2022-07-29T08:27:46;16.10;99.90
71754;DHT22;59593;51.716;7.016;2022-07-29T08:30:12;15.90;99.90
71754;DHT22;59593;51.716;7.016;2022-07-29T08:32:38;16.00;99.90
71754;DHT22;59593;51.716;7.016;2022-07-29T08:35:04;16.10;99.90
71754;DHT22;59593;51.716;7.016;2022-07-29T08:37:30;16.30;99.90
71754;DHT22;59593;51.716;7.016;2022-07-29T08:39:55;16.40;99.90
71754;DHT22;59593;51.716;7.016;2022-07-29T08:42:21;16.30;99.90
71754;DHT22;59593;51.716;7.016;2022-07-29T08:44:47;16.20;99.90
71754;DHT22;59593;51.716;7.016;2022-07-29T08:47:16;16.00;99.90
71754;DHT22;59593;51.716;7.016;2022-07-29T08:49:42;15.90;99.90
71754;DHT22;59593;51.716;7.016;2022-07-29T08:52:10;16.20;99.90
71754;DHT22;59593;51.716;7.016;2022-07-29T08:54:38;16.10;99.90
71754;DHT22;59593;51.716;7.016;2022-07-29T08:57:04;15.90;99.90
71754;DHT22;59593;51.716;7.016;2022-07-29T08:59:30;15.90;99.90
71754;DHT22;59593;51.716;7.016;2022-07-29T09:01:59;15.80;99.90
71754;DHT22;59593;51.716;7.016;2022-07-29T09:04:29;15.80;99.90
71754;DHT22;59593;51.716;7.016;2022-07-29T09:06:57;15.80;99.90
71754;DHT22;59593;51.716;7.016;2022-07-29T09:09:26;15.80;99.90
71754;DHT22;59593;51.716;7.016;2022-07-29T09:11:53;15.90;99.90
71754;DHT22;59593;51.716;7.016;2022-07-29T09:14:19;15.90;99.90
71754;DHT22;59593;51.716;7.016;2022-07-29T09:16:53;16.10;99.90
71754;DHT22;59593;51.716;7.016;2022-07-29T09:19:27;16.30;99.90
71754;DHT22;59593;51.716;7.016;2022-07-29T09:21:55;16.30;99.90
71754;DHT22;59593;51.716;7.016;2022-07-29T09:24:46;16.30;99.90
71754;DHT22;59593;51.716;7.016;2022-07-29T09:27:22;15.90;99.90
71754;DHT22;59593;51.716;7.016;2022-07-29T09:30:01;15.80;99.90
71754;DHT22;59593;51.716;7.016;2022-07-29T09:32:28;15.80;99.90
71754;DHT22;59593;51.716;7.016;2022-07-29T09:35:14;15.80;99.90
71754;DHT22;59593;51.716;7.016;2022-07-29T09:37:40;15.80;99.90
71754;DHT22;59593;51.716;7.016;2022-07-29T09:40:20;16.00;99.90
71754;DHT22;59593;51.716;7.016;2022-07-29T09:42:46;15.90;99.90
71754;DHT22;59593;51.716;7.016;2022-07-29T09:45:13;15.90;99.90
71754;DHT22;59593;51.716;7.016;2022-07-29T09:47:50;15.90;99.90
71754;DHT22;59593;51.716;7.016;2022-07-29T09:50:16;16.00;99.90
71754;DHT22;59593;51.716;7.016;2022-07-29T09:52:49;16.10;99.90
71754;DHT22;59593;51.716;7.016;2022-07-29T09:55:16;16.40;99.90
71754;DHT22;59593;51.716;7.016;2022-07-29T09:57:42;16.60;99.90
71754;DHT22;59593;51.716;7.016;2022-07-29T10:00:11;16.60;99.90
71754;DHT22;59593;51.716;7.016;2022-07-29T10:02:39;16.50;99.90
71754;DHT22;59593;51.716;7.016;2022-07-29T10:05:15;16.70;99.90
71754;DHT22;59593;51.716;7.016;2022-07-29T10:07:55;16.70;99.90
71754;DHT22;59593;51.716;7.016;2022-07-29T10:10:29;16.60;99.90
71754;DHT22;59593;51.716;7.016;2022-07-29T10:12:56;16.90;99.90
71754;DHT22;59593;51.716;7.016;2022-07-29T10:15:24;16.70;99.90
71754;DHT22;59593;51.716;7.016;2022-07-29T10:17:52;16.70;99.90
71754;DHT22;59593;51.716;7.016;2022-07-29T10:20:18;16.80;99.90
71754;DHT22;59593;51.716;7.016;2022-07-29T10:22:43;16.80;99.90
71754;DHT22;59593;51.716;7.016;2022-07-29T10:25:10;16.70;99.90
71754;DHT22;59593;51.716;7.016;2022-07-29T10:27:36;16.80;99.90
71754;DHT22;59593;51.716;7.016;2022-07-29T10:30:04;16.90;99.90
71754;DHT22;59593;51.716;7.016;2022-07-29T10:32:57;16.80;99.90
71754;DHT22;59593;51.716;7.016;2022-07-29T10:35:40;16.90;99.90
71754;DHT22;59593;51.716;7.016;2022-07-29T10:46:25;17.10;99.90
71754;DHT22;59593;51.716;7.016;2022-07-29T10:49:07;17.20;99.90
71754;DHT22;59593;51.716;7.016;2022-07-29T10:51:53;17.10;99.90
71754;DHT22;59593;51.716;7.016;2022-07-29T10:57:30;17.00;99.90
71754;DHT22;59593;51.716;7.016;2022-07-29T11:05:16;17.00;99.90
71754;DHT22;59593;51.716;7.016;2022-07-29T11:10:38;17.20;99.90
71754;DHT22;59593;51.716;7.016;2022-07-29T11:13:04;17.30;99.90
71754;DHT22;59593;51.716;7.016;2022-07-29T11:15:53;17.40;99.90
71754;DHT22;59593;51.716;7.016;2022-07-29T11:18:19;17.70;99.90
71754;DHT22;59593;51.716;7.016;2022-07-29T11:20:50;17.80;99.90
71754;DHT22;59593;51.716;7.016;2022-07-29T11:29:05;17.90;99.90
71754;DHT22;59593;51.716;7.016;2022-07-29T11:39:30;18.40;99.90
71754;DHT22;59593;51.716;7.016;2022-07-29T11:47:22;19.10;99.90
71754;DHT22;59593;51.716;7.016;2022-07-29T11:49:48;19.40;99.90
71754;DHT22;59593;51.716;7.016;2022-07-29T11:52:14;19.70;99.90
71754;DHT22;59593;51.716;7.016;2022-07-29T11:54:42;19.80;99.90
71754;DHT22;59593;51.716;7.016;2022-07-29T11:57:08;19.50;99.90
71754;DHT22;59593;51.716;7.016;2022-07-29T11:59:41;19.60;99.90
71754;DHT22;59593;51.716;7.016;2022-07-29T12:02:07;20.70;99.90
71754;DHT22;59593;51.716;7.016;2022-07-29T12:04:34;21.30;99.90
71754;DHT22;59593;51.716;7.016;2022-07-29T12:07:00;21.40;99.90
71754;DHT22;59593;51.716;7.016;2022-07-29T12:09:26;21.40;99.30
71754;DHT22;59593;51.716;7.016;2022-07-29T12:11:59;21.50;99.50
71754;DHT22;59593;51.716;7.016;2022-07-29T12:14:33;21.60;98.50
71754;DHT22;59593;51.716;7.016;2022-07-29T12:17:00;22.00;98.70
71754;DHT22;59593;51.716;7.016;2022-07-29T12:19:26;22.10;98.30
71754;DHT22;59593;51.716;7.016;2022-07-29T12:21:54;22.40;97.40
71754;DHT22;59593;51.716;7.016;2022-07-29T12:24:21;22.60;96.70
71754;DHT22;59593;51.716;7.016;2022-07-29T12:26:59;22.60;97.30
71754;DHT22;59593;51.716;7.016;2022-07-29T12:29:25;21.30;98.30
71754;DHT22;59593;51.716;7.016;2022-07-29T12:31:55;21.90;98.90
71754;DHT22;59593;51.716;7.016;2022-07-29T12:34:23;22.60;98.00
71754;DHT22;59593;51.716;7.016;2022-07-29T12:36:50;23.10;95.80
71754;DHT22;59593;51.716;7.016;2022-07-29T12:39:16;22.20;95.80
71754;DHT22;59593;51.716;7.016;2022-07-29T12:41:43;22.50;96.00
71754;DHT22;59593;51.716;7.016;2022-07-29T12:44:08;22.90;96.30
71754;DHT22;59593;51.716;7.016;2022-07-29T12:46:34;21.80;96.30
71754;DHT22;59593;51.716;7.016;2022-07-29T12:49:00;21.70;96.30
71754;DHT22;59593;51.716;7.016;2022-07-29T12:54:07;22.80;94.90
71754;DHT22;59593;51.716;7.016;2022-07-29T12:56:33;22.70;95.90
71754;DHT22;59593;51.716;7.016;2022-07-29T12:58:59;22.80;96.60
71754;DHT22;59593;51.716;7.016;2022-07-29T13:01:24;22.30;95.20
71754;DHT22;59593;51.716;7.016;2022-07-29T13:03:56;21.60;97.30
71754;DHT22;59593;51.716;7.016;2022-07-29T13:06:43;22.00;97.30
71754;DHT22;59593;51.716;7.016;2022-07-29T13:09:17;21.80;97.50
71754;DHT22;59593;51.716;7.016;2022-07-29T13:11:45;21.60;96.10
71754;DHT22;59593;51.716;7.016;2022-07-29T13:14:16;21.90;96.10
71754;DHT22;59593;51.716;7.016;2022-07-29T13:19:52;22.00;96.30
71754;DHT22;59593;51.716;7.016;2022-07-29T13:22:22;21.60;98.00
71754;DHT22;59593;51.716;7.016;2022-07-29T13:27:16;21.90;98.60
71754;DHT22;59593;51.716;7.016;2022-07-29T13:29:42;21.90;98.30
71754;DHT22;59593;51.716;7.016;2022-07-29T13:32:08;21.90;98.70
71754;DHT22;59593;51.716;7.016;2022-07-29T13:34:33;21.90;98.60
71754;DHT22;59593;51.716;7.016;2022-07-29T13:36:59;21.80;98.50
71754;DHT22;59593;51.716;7.016;2022-07-29T13:39:25;21.40;99.10
71754;DHT22;59593;51.716;7.016;2022-07-29T13:41:51;21.50;99.10
71754;DHT22;59593;51.716;7.016;2022-07-29T13:44:17;21.70;98.50
71754;DHT22;59593;51.716;7.016;2022-07-29T13:46:42;21.60;98.90
71754;DHT22;59593;51.716;7.016;2022-07-29T13:49:08;21.60;98.40
71754;DHT22;59593;51.716;7.016;2022-07-29T13:51:33;21.80;98.40
71754;DHT22;59593;51.716;7.016;2022-07-29T13:53:59;22.00;97.50
71754;DHT22;59593;51.716;7.016;2022-07-29T13:56:25;22.00;97.80
71754;DHT22;59593;51.716;7.016;2022-07-29T13:58:51;22.10;98.10
71754;DHT22;59593;51.716;7.016;2022-07-29T14:01:17;22.20;97.00
71754;DHT22;59593;51.716;7.016;2022-07-29T14:03:42;22.30;96.20
71754;DHT22;59593;51.716;7.016;2022-07-29T14:06:08;22.30;96.70
71754;DHT22;59593;51.716;7.016;2022-07-29T14:08:34;22.30;96.40
71754;DHT22;59593;51.716;7.016;2022-07-29T14:11:00;22.10;97.10
71754;DHT22;59593;51.716;7.016;2022-07-29T14:13:25;22.30;96.20
71754;DHT22;59593;51.716;7.016;2022-07-29T14:15:51;22.60;96.20
71754;DHT22;59593;51.716;7.016;2022-07-29T14:18:17;22.80;96.00
71754;DHT22;59593;51.716;7.016;2022-07-29T14:20:43;22.40;96.20
71754;DHT22;59593;51.716;7.016;2022-07-29T14:23:08;22.70;95.90
71754;DHT22;59593;51.716;7.016;2022-07-29T14:25:34;22.60;96.00
71754;DHT22;59593;51.716;7.016;2022-07-29T14:27:59;22.40;95.00
71754;DHT22;59593;51.716;7.016;2022-07-29T14:30:25;22.60;94.80
71754;DHT22;59593;51.716;7.016;2022-07-29T14:32:51;23.00;95.70
71754;DHT22;59593;51.716;7.016;2022-07-29T14:35:16;23.40;94.20
71754;DHT22;59593;51.716;7.016;2022-07-29T14:37:42;22.70;95.00
71754;DHT22;59593;51.716;7.016;2022-07-29T14:40:09;22.80;95.30
71754;DHT22;59593;51.716;7.016;2022-07-29T14:42:35;22.80;95.30
71754;DHT22;59593;51.716;7.016;2022-07-29T14:45:03;23.10;94.10
71754;DHT22;59593;51.716;7.016;2022-07-29T14:47:29;22.90;94.50
71754;DHT22;59593;51.716;7.016;2022-07-29T14:49:55;23.20;94.60
71754;DHT22;59593;51.716;7.016;2022-07-29T14:52:20;23.40;94.00
71754;DHT22;59593;51.716;7.016;2022-07-29T14:54:46;23.50;93.40
71754;DHT22;59593;51.716;7.016;2022-07-29T14:57:11;23.30;94.00
71754;DHT22;59593;51.716;7.016;2022-07-29T14:59:37;23.80;93.00
71754;DHT22;59593;51.716;7.016;2022-07-29T15:02:03;23.40;92.80
71754;DHT22;59593;51.716;7.016;2022-07-29T15:04:28;23.40;93.00
71754;DHT22;59593;51.716;7.016;2022-07-29T15:06:54;22.90;93.40
71754;DHT22;59593;51.716;7.016;2022-07-29T15:09:19;22.80;93.80
71754;DHT22;59593;51.716;7.016;2022-07-29T15:11:45;23.50;94.10
71754;DHT22;59593;51.716;7.016;2022-07-29T15:14:11;23.10;93.10
71754;DHT22;59593;51.716;7.016;2022-07-29T15:16:38;23.00;94.20
71754;DHT22;59593;51.716;7.016;2022-07-29T15:19:05;23.10;92.80
71754;DHT22;59593;51.716;7.016;2022-07-29T15:21:31;22.90;93.50
71754;DHT22;59593;51.716;7.016;2022-07-29T15:23:57;23.40;92.90
71754;DHT22;59593;51.716;7.016;2022-07-29T15:26:23;23.60;91.90
71754;DHT22;59593;51.716;7.016;2022-07-29T15:28:48;23.90;91.90
71754;DHT22;59593;51.716;7.016;2022-07-29T15:31:14;24.40;93.20
71754;DHT22;59593;51.716;7.016;2022-07-29T15:33:40;24.10;91.80
71754;DHT22;59593;51.716;7.016;2022-07-29T15:36:06;23.80;91.30
71754;DHT22;59593;51.716;7.016;2022-07-29T15:38:31;24.20;90.70
71754;DHT22;59593;51.716;7.016;2022-07-29T15:40:58;23.70;91.70
71754;DHT22;59593;51.716;7.016;2022-07-29T15:43:23;24.10;90.70
71754;DHT22;59593;51.716;7.016;2022-07-29T15:45:49;23.90;90.50
71754;DHT22;59593;51.716;7.016;2022-07-29T15:48:37;24.20;91.60
71754;DHT22;59593;51.716;7.016;2022-07-29T15:51:03;23.90;90.90
71754;DHT22;59593;51.716;7.016;2022-07-29T15:53:29;23.70;91.40
71754;DHT22;59593;51.716;7.016;2022-07-29T15:55:55;24.40;90.10
71754;DHT22;59593;51.716;7.016;2022-07-29T15:58:20;24.80;90.10
71754;DHT22;59593;51.716;7.016;2022-07-29T16:00:47;24.80;89.00
71754;DHT22;59593;51.716;7.016;2022-07-29T16:03:13;24.60;89.30
71754;DHT22;59593;51.716;7.016;2022-07-29T16:05:39;24.80;90.20
71754;DHT22;59593;51.716;7.016;2022-07-29T16:08:05;25.30;87.60
71754;DHT22;59593;51.716;7.016;2022-07-29T16:10:30;25.40;86.80
71754;DHT22;59593;51.716;7.016;2022-07-29T16:12:56;25.60;86.50
71754;DHT22;59593;51.716;7.016;2022-07-29T16:15:21;25.20;85.60
71754;DHT22;59593;51.716;7.016;2022-07-29T16:17:47;25.00;86.50
71754;DHT22;59593;51.716;7.016;2022-07-29T16:20:14;25.60;85.50
71754;DHT22;59593;51.716;7.016;2022-07-29T16:22:40;26.00;84.60
71754;DHT22;59593;51.716;7.016;2022-07-29T16:25:06;26.10;82.90
71754;DHT22;59593;51.716;7.016;2022-07-29T16:27:32;25.20;85.40
71754;DHT22;59593;51.716;7.016;2022-07-29T16:29:57;25.20;85.70
71754;DHT22;59593;51.716;7.016;2022-07-29T16:32:23;24.70;89.00
71754;DHT22;59593;51.716;7.016;2022-07-29T16:34:49;24.80;86.30
71754;DHT22;59593;51.716;7.016;2022-07-29T16:37:14;24.80;88.80
71754;DHT22;59593;51.716;7.016;2022-07-29T16:39:41;25.40;87.40
71754;DHT22;59593;51.716;7.016;2022-07-29T16:42:07;25.60;83.40
71754;DHT22;59593;51.716;7.016;2022-07-29T16:44:32;25.90;82.50